createdAt,value
2023-04-21T00:00:09.275Z,67.70
2023-04-21T00:01:11.464Z,67.79
2023-04-21T00:02:14.092Z,67.76
2023-04-21T00:03:16.957Z,67.86
2023-04-21T00:04:20.443Z,68.05
2023-04-21T00:05:22.972Z,67.86
2023-04-21T00:06:27.337Z,67.73
2023-04-21T00:07:29.401Z,67.78
2023-04-21T00:08:31.803Z,67.76
2023-04-21T00:09:33.989Z,67.79
2023-04-21T00:10:36.258Z,67.64
2023-04-21T00:11:38.464Z,67.71
2023-04-21T00:12:40.975Z,67.74
2023-04-21T00:13:43.132Z,67.70
2023-04-21T00:14:45.275Z,67.68
2023-04-21T00:15:47.472Z,67.67
2023-04-21T00:16:49.999Z,67.64
2023-04-21T00:17:52.703Z,67.75
2023-04-21T00:18:55.236Z,67.74
2023-04-21T00:19:57.751Z,67.73
2023-04-21T00:21:00.520Z,67.69
2023-04-21T00:22:02.808Z,67.74
2023-04-21T00:23:05.447Z,67.77
2023-04-21T00:24:08.473Z,67.76
2023-04-21T00:25:10.788Z,67.62
2023-04-21T00:26:14.503Z,67.76
2023-04-21T00:27:18.125Z,67.82
2023-04-21T00:28:20.411Z,67.87
2023-04-21T00:29:23.063Z,67.76
2023-04-21T00:30:25.502Z,67.82
2023-04-21T00:31:28.867Z,67.95
2023-04-21T00:32:33.184Z,67.88
2023-04-21T00:33:35.930Z,67.80
2023-04-21T00:34:38.116Z,67.83
2023-04-21T00:35:40.866Z,67.85
2023-04-21T00:36:43.304Z,67.91
2023-04-21T00:37:47.089Z,67.89
2023-04-21T00:38:49.144Z,67.86
2023-04-21T00:39:51.086Z,67.93
2023-04-21T00:40:53.651Z,67.84
2023-04-21T00:41:56.112Z,67.87
2023-04-21T00:42:58.327Z,67.97
2023-04-21T00:45:14.889Z,67.92
2023-04-21T00:46:18.288Z,67.96
2023-04-21T00:47:20.534Z,67.92
2023-04-21T00:48:25.142Z,67.94
2023-04-21T00:49:27.756Z,68.14
2023-04-21T00:50:30.348Z,68.06
2023-04-21T00:51:35.707Z,68.08
2023-04-21T00:52:42.650Z,68.01
2023-04-21T00:53:45.938Z,68.00
2023-04-21T00:54:48.441Z,68.12
2023-04-21T00:55:50.993Z,68.22
2023-04-21T00:56:54.641Z,68.22
2023-04-21T00:57:57.553Z,68.29
2023-04-21T00:59:03.219Z,68.22
2023-04-21T01:00:08.022Z,68.21
2023-04-21T01:01:13.206Z,68.17
2023-04-21T01:02:16.753Z,68.19
2023-04-21T01:03:19.104Z,68.27
2023-04-21T01:04:21.471Z,68.40
2023-04-21T01:05:23.709Z,68.34
2023-04-21T01:06:30.234Z,68.22
2023-04-21T01:07:33.035Z,68.22
2023-04-21T01:08:36.315Z,68.20
2023-04-21T01:09:38.640Z,68.25
2023-04-21T01:10:41.949Z,68.19
2023-04-21T01:12:56.432Z,68.29
2023-04-21T01:14:00.551Z,68.44
2023-04-21T01:15:03.325Z,68.27
2023-04-21T01:16:07.102Z,68.23
2023-04-21T01:17:09.393Z,68.46
2023-04-21T01:18:12.118Z,68.31
2023-04-21T01:19:15.638Z,68.35
2023-04-21T01:20:17.989Z,68.52
2023-04-21T01:21:20.825Z,68.41
2023-04-21T01:22:23.058Z,68.44
2023-04-21T01:23:26.443Z,68.37
2023-04-21T01:25:55.509Z,68.34
2023-04-21T01:26:57.944Z,68.66
2023-04-21T01:28:01.225Z,68.62
2023-04-21T01:29:03.536Z,68.58
2023-04-21T01:30:09.856Z,68.72
2023-04-21T01:31:12.213Z,68.72
2023-04-21T01:33:28.972Z,68.74
2023-04-21T01:34:33.078Z,68.72
2023-04-21T01:35:35.237Z,68.84
2023-04-21T01:36:38.386Z,68.46
2023-04-21T01:37:40.525Z,68.57
2023-04-21T01:38:43.216Z,68.56
2023-04-21T01:39:48.777Z,68.59
2023-04-21T01:40:53.358Z,68.72
2023-04-21T01:41:56.999Z,68.76
2023-04-21T01:42:59.210Z,68.95
2023-04-21T01:44:01.446Z,68.85
2023-04-21T01:45:04.407Z,68.76
2023-04-21T01:46:07.339Z,68.74
2023-04-21T01:47:09.775Z,68.84
2023-04-21T01:48:12.384Z,68.82
2023-04-21T01:49:15.240Z,68.82
2023-04-21T01:50:18.773Z,68.84
2023-04-21T01:51:20.895Z,68.83
2023-04-21T01:52:23.065Z,68.92
2023-04-21T01:53:25.340Z,68.92
2023-04-21T01:54:28.019Z,68.91
2023-04-21T01:55:30.286Z,68.87
2023-04-21T01:56:33.493Z,68.86
2023-04-21T01:57:35.775Z,68.87
2023-04-21T01:58:37.814Z,68.88
2023-04-21T01:59:40.084Z,68.86
2023-04-21T02:00:42.321Z,68.71
2023-04-21T02:01:44.515Z,68.70
2023-04-21T02:02:46.892Z,68.70
2023-04-21T02:03:49.398Z,68.79
2023-04-21T02:04:52.241Z,68.95
2023-04-21T02:05:54.298Z,68.82
2023-04-21T02:06:56.548Z,68.81
2023-04-21T02:07:58.762Z,68.87
2023-04-21T02:09:01.372Z,68.95
2023-04-21T02:10:06.551Z,68.73
2023-04-21T02:11:08.823Z,68.86
2023-04-21T02:12:11.588Z,68.84
2023-04-21T02:13:15.692Z,68.94
2023-04-21T02:14:17.974Z,68.82
2023-04-21T02:15:20.226Z,68.75
2023-04-21T02:16:22.966Z,68.87
2023-04-21T02:17:25.747Z,68.90
2023-04-21T02:18:29.794Z,68.90
2023-04-21T02:19:32.069Z,68.89
2023-04-21T02:20:34.434Z,68.86
2023-04-21T02:21:36.481Z,69.00
2023-04-21T02:22:39.176Z,68.85
2023-04-21T02:23:41.555Z,68.96
2023-04-21T02:24:43.775Z,69.04
2023-04-21T02:25:47.500Z,68.84
2023-04-21T02:26:49.855Z,68.94
2023-04-21T02:27:52.027Z,68.88
2023-04-21T02:28:54.206Z,68.79
2023-04-21T02:29:56.252Z,68.95
2023-04-21T02:30:58.510Z,69.13
2023-04-21T02:32:10.764Z,69.02
2023-04-21T02:33:05.726Z,69.02
2023-04-21T02:34:07.920Z,69.12
2023-04-21T02:35:10.719Z,69.26
2023-04-21T02:36:13.604Z,69.21
2023-04-21T02:37:15.665Z,69.16
2023-04-21T02:38:17.817Z,69.21
2023-04-21T02:39:20.355Z,69.27
2023-04-21T02:40:23.325Z,69.17
2023-04-21T02:41:27.128Z,69.26
2023-04-21T02:42:29.180Z,69.26
2023-04-21T02:43:31.295Z,69.25
2023-04-21T02:44:33.276Z,69.06
2023-04-21T02:45:36.607Z,69.13
2023-04-21T02:46:42.968Z,69.17
2023-04-21T02:47:45.359Z,69.20
2023-04-21T02:48:47.469Z,69.35
2023-04-21T02:49:49.737Z,69.41
2023-04-21T02:50:53.207Z,69.26
2023-04-21T02:51:55.911Z,69.29
2023-04-21T02:52:58.390Z,69.44
2023-04-21T02:54:01.161Z,69.52
2023-04-21T02:55:03.768Z,69.40
2023-04-21T02:56:08.126Z,69.44
2023-04-21T02:57:10.344Z,69.51
2023-04-21T02:58:12.595Z,69.58
2023-04-21T02:59:14.649Z,69.59
2023-04-21T03:00:18.133Z,69.57
2023-04-21T03:01:20.402Z,69.69
2023-04-21T03:02:22.765Z,69.65
2023-04-21T03:03:27.361Z,69.50
2023-04-21T03:04:33.768Z,69.56
2023-04-21T03:05:38.607Z,69.31
2023-04-21T03:06:45.097Z,69.43
2023-04-21T03:07:48.685Z,69.52
2023-04-21T03:08:53.896Z,69.47
2023-04-21T03:09:57.219Z,69.35
2023-04-21T03:11:07.610Z,69.44
2023-04-21T03:12:11.074Z,69.48
2023-04-21T03:14:39.221Z,69.42
2023-04-21T03:15:46.157Z,69.21
2023-04-21T03:16:53.377Z,69.32
2023-04-21T03:17:59.623Z,69.19
2023-04-21T03:19:04.903Z,68.99
2023-04-21T03:20:10.348Z,69.08
2023-04-21T03:21:16.568Z,68.85
2023-04-21T03:22:22.788Z,69.03
2023-04-21T03:23:29.146Z,68.81
2023-04-21T03:24:31.499Z,68.98
2023-04-21T03:25:35.408Z,68.84
2023-04-21T03:26:52.791Z,68.78
2023-04-21T03:27:57.130Z,68.70
2023-04-21T03:29:03.440Z,68.66
2023-04-21T03:30:09.181Z,68.58
2023-04-21T03:31:16.877Z,68.60
2023-04-21T03:32:22.729Z,68.42
2023-04-21T03:33:30.063Z,68.33
2023-04-21T03:34:34.629Z,68.50
2023-04-21T03:35:40.335Z,68.36
2023-04-21T03:36:46.038Z,68.37
2023-04-21T03:37:51.257Z,68.44
2023-04-21T03:39:05.937Z,68.44
2023-04-21T03:40:18.083Z,68.56
2023-04-21T03:41:22.453Z,68.46
2023-04-21T03:42:30.561Z,68.59
2023-04-21T03:43:39.164Z,68.20
2023-04-21T03:47:22.887Z,68.13
2023-04-21T03:48:27.314Z,68.27
2023-04-21T03:49:29.531Z,68.05
2023-04-21T03:50:32.296Z,68.04
2023-04-21T03:51:34.431Z,68.00
2023-04-21T03:52:36.494Z,68.15
2023-04-21T03:53:38.642Z,67.99
2023-04-21T03:54:40.714Z,67.97
2023-04-21T03:55:42.880Z,68.15
2023-04-21T03:56:45.520Z,68.24
2023-04-21T03:57:48.493Z,67.98
2023-04-21T03:58:50.696Z,68.16
2023-04-21T03:59:52.799Z,68.03
2023-04-21T04:00:55.187Z,68.07
2023-04-21T04:01:57.332Z,68.05
2023-04-21T04:02:59.530Z,68.08
2023-04-21T04:04:03.311Z,68.29
2023-04-21T04:05:06.577Z,68.19
2023-04-21T04:06:09.314Z,68.27
2023-04-21T04:07:11.755Z,68.37
2023-04-21T04:08:14.023Z,68.75
2023-04-21T04:09:16.091Z,68.71
2023-04-21T04:10:19.659Z,68.60
2023-04-21T04:11:21.892Z,68.75
2023-04-21T04:12:24.148Z,68.93
2023-04-21T04:13:26.295Z,68.95
2023-04-21T04:14:29.153Z,68.95
2023-04-21T04:15:31.216Z,68.99
2023-04-21T04:16:34.924Z,68.80
2023-04-21T04:17:37.341Z,68.89
2023-04-21T04:18:39.568Z,68.73
2023-04-21T04:19:42.286Z,68.63
2023-04-21T04:20:44.553Z,68.91
2023-04-21T04:21:49.083Z,69.06
2023-04-21T04:22:51.500Z,69.11
2023-04-21T04:23:53.728Z,69.12
2023-04-21T04:24:56.425Z,69.19
2023-04-21T04:25:58.581Z,69.35
2023-04-21T04:27:01.252Z,69.47
2023-04-21T04:28:03.628Z,69.44
2023-04-21T04:29:06.666Z,69.61
2023-04-21T04:30:11.105Z,69.78
2023-04-21T04:31:13.434Z,70.07
2023-04-21T04:32:15.978Z,70.31
2023-04-21T04:33:18.154Z,70.54
2023-04-21T04:34:20.417Z,70.45
2023-04-21T04:35:22.589Z,70.39
2023-04-21T04:36:24.854Z,70.34
2023-04-21T04:37:27.033Z,70.30
2023-04-21T04:38:29.573Z,70.40
2023-04-21T04:39:31.943Z,70.44
2023-04-21T04:40:34.325Z,70.41
2023-04-21T04:41:36.594Z,70.29
2023-04-21T04:42:38.767Z,70.37
2023-04-21T04:43:40.925Z,70.23
2023-04-21T04:44:42.854Z,70.29
2023-04-21T04:45:44.978Z,70.17
2023-04-21T04:46:47.262Z,70.06
2023-04-21T04:47:49.968Z,70.07
2023-04-21T04:48:52.906Z,70.11
2023-04-21T04:49:55.134Z,70.12
2023-04-21T04:50:57.404Z,70.05
2023-04-21T04:51:59.865Z,70.05
2023-04-21T04:53:02.058Z,69.98
2023-04-21T04:54:04.143Z,69.91
2023-04-21T04:55:08.118Z,69.93
2023-04-21T04:56:10.511Z,69.77
2023-04-21T04:57:12.700Z,69.76
2023-04-21T04:58:15.270Z,69.78
2023-04-21T04:59:17.406Z,69.45
2023-04-21T05:00:19.870Z,69.35
2023-04-21T05:01:22.407Z,69.42
2023-04-21T05:02:24.809Z,69.24
2023-04-21T05:03:27.204Z,69.07
2023-04-21T05:04:29.892Z,69.19
2023-04-21T05:05:32.178Z,69.26
2023-04-21T05:06:34.571Z,69.21
2023-04-21T05:07:37.693Z,69.20
2023-04-21T05:08:40.048Z,69.28
2023-04-21T05:09:42.101Z,69.25
2023-04-21T05:10:44.439Z,69.21
2023-04-21T05:11:48.114Z,69.12
2023-04-21T05:12:50.367Z,69.12
2023-04-21T05:13:52.565Z,69.41
2023-04-21T05:14:55.356Z,69.19
2023-04-21T05:15:58.392Z,69.12
2023-04-21T05:17:01.335Z,68.97
2023-04-21T05:18:03.729Z,69.00
2023-04-21T05:19:05.942Z,68.93
2023-04-21T05:20:10.799Z,68.68
2023-04-21T05:21:13.173Z,68.81
2023-04-21T05:22:16.166Z,69.02
2023-04-21T05:23:18.379Z,68.92
2023-04-21T05:24:21.129Z,68.89
2023-04-21T05:25:23.427Z,68.92
2023-04-21T05:26:26.584Z,68.91
2023-04-21T05:27:28.808Z,68.99
2023-04-21T05:28:32.019Z,68.86
2023-04-21T05:29:34.818Z,68.61
2023-04-21T05:30:37.691Z,68.64
2023-04-21T05:31:39.920Z,68.67
2023-04-21T05:32:42.448Z,68.52
2023-04-21T05:33:45.296Z,68.69
2023-04-21T05:34:47.537Z,68.44
2023-04-21T05:35:49.457Z,68.62
2023-04-21T05:36:52.082Z,68.52
2023-04-21T05:37:54.125Z,68.27
2023-04-21T05:38:56.214Z,68.43
2023-04-21T05:39:58.273Z,68.04
2023-04-21T05:41:01.614Z,67.73
2023-04-21T05:42:04.049Z,67.70
2023-04-21T05:43:06.169Z,67.55
2023-04-21T05:44:08.316Z,67.53
2023-04-21T05:45:11.065Z,67.51
2023-04-21T05:46:13.313Z,67.18
2023-04-21T05:47:15.571Z,67.06
2023-04-21T05:48:18.270Z,67.03
2023-04-21T05:49:20.509Z,67.02
2023-04-21T05:50:23.990Z,66.85
2023-04-21T05:51:26.524Z,66.83
2023-04-21T05:52:29.134Z,67.09
2023-04-21T05:53:31.192Z,67.30
2023-04-21T05:54:33.755Z,67.37
2023-04-21T05:55:36.860Z,67.51
2023-04-21T05:56:39.261Z,67.37
2023-04-21T05:57:41.779Z,67.07
2023-04-21T05:58:44.639Z,66.91
2023-04-21T05:59:46.790Z,66.70
2023-04-21T06:00:49.548Z,66.56
2023-04-21T06:01:51.720Z,66.42
2023-04-21T06:02:54.730Z,66.62
2023-04-21T06:03:57.044Z,66.55
2023-04-21T06:05:00.015Z,66.66
2023-04-21T06:06:04.275Z,66.58
2023-04-21T06:07:07.343Z,66.51
2023-04-21T06:08:09.551Z,66.36
2023-04-21T06:09:12.041Z,66.64
2023-04-21T06:10:14.752Z,66.73
2023-04-21T06:11:16.997Z,66.93
2023-04-21T06:12:19.037Z,66.93
2023-04-21T06:13:21.501Z,67.00
2023-04-21T06:14:24.054Z,66.90
2023-04-21T06:15:26.105Z,66.82
2023-04-21T06:16:28.592Z,66.68
2023-04-21T06:17:30.680Z,66.55
2023-04-21T06:18:32.668Z,66.53
2023-04-21T06:19:38.450Z,66.87
2023-04-21T06:20:40.639Z,66.69
2023-04-21T06:21:42.825Z,66.41
2023-04-21T06:22:44.997Z,66.96
2023-04-21T06:23:49.300Z,66.99
2023-04-21T06:24:51.630Z,67.01
2023-04-21T06:26:04.608Z,67.12
2023-04-21T06:27:11.346Z,67.39
2023-04-21T06:28:13.542Z,67.18
2023-04-21T06:29:15.603Z,67.11
2023-04-21T06:30:19.537Z,66.99
2023-04-21T06:31:22.286Z,66.31
2023-04-21T06:32:24.591Z,66.31
2023-04-21T06:33:27.197Z,65.73
2023-04-21T06:34:29.769Z,66.23
2023-04-21T06:35:31.882Z,66.51
2023-04-21T06:36:34.206Z,66.43
2023-04-21T06:37:36.429Z,66.33
2023-04-21T06:38:38.685Z,66.61
2023-04-21T06:39:40.827Z,65.86
2023-04-21T06:40:44.124Z,65.63
2023-04-21T06:41:47.188Z,65.59
2023-04-21T06:42:49.353Z,65.14
2023-04-21T06:43:52.317Z,64.95
2023-04-21T06:45:05.176Z,64.59
2023-04-21T06:46:12.941Z,64.33
2023-04-21T06:47:18.150Z,64.58
2023-04-21T06:48:21.985Z,64.66
2023-04-21T06:49:26.872Z,64.67
2023-04-21T06:50:31.886Z,64.59
2023-04-21T06:51:38.210Z,64.45
2023-04-21T06:52:47.471Z,64.20
2023-04-21T06:53:50.348Z,64.32
2023-04-21T06:54:56.985Z,64.10
2023-04-21T06:56:01.624Z,63.60
2023-04-21T06:57:06.911Z,63.74
2023-04-21T06:58:13.840Z,63.71
2023-04-21T06:59:21.110Z,63.44
2023-04-21T07:00:26.863Z,63.39
2023-04-21T07:01:41.977Z,63.23
2023-04-21T07:02:47.430Z,63.14
2023-04-21T07:03:54.693Z,63.08
2023-04-21T07:05:00.861Z,62.98
2023-04-21T07:06:06.715Z,63.07
2023-04-21T07:07:10.495Z,63.27
2023-04-21T07:08:16.129Z,63.17
2023-04-21T07:09:21.832Z,63.10
2023-04-21T07:10:28.724Z,63.39
2023-04-21T07:11:33.819Z,63.35
2023-04-21T07:12:39.213Z,63.47
2023-04-21T07:13:44.613Z,63.06
2023-04-21T07:15:04.272Z,62.67
2023-04-21T07:16:09.948Z,62.08
2023-04-21T07:17:13.733Z,61.61
2023-04-21T07:18:18.984Z,61.35
2023-04-21T07:19:22.773Z,61.17
2023-04-21T07:20:27.580Z,61.85
2023-04-21T07:21:30.624Z,62.31
2023-04-21T07:22:37.989Z,61.64
2023-04-21T07:23:50.303Z,62.05
2023-04-21T07:24:53.727Z,62.04
2023-04-21T07:26:01.475Z,60.60
2023-04-21T07:27:05.023Z,60.52
2023-04-21T07:28:08.998Z,60.49
2023-04-21T07:29:15.582Z,60.31
2023-04-21T07:30:20.599Z,60.22
2023-04-21T07:31:26.099Z,59.95
2023-04-21T07:32:32.239Z,58.64
2023-04-21T07:33:39.197Z,58.74
2023-04-21T07:34:41.816Z,59.04
2023-04-21T07:35:48.136Z,59.37
2023-04-21T07:36:55.832Z,60.08
2023-04-21T07:38:03.799Z,61.08
2023-04-21T07:39:07.165Z,60.55
2023-04-21T07:40:11.609Z,60.47
2023-04-21T07:41:22.374Z,61.04
2023-04-21T07:42:26.916Z,61.47
2023-04-21T07:44:54.079Z,61.26
2023-04-21T07:45:58.879Z,59.61
2023-04-21T07:47:02.068Z,59.38
2023-04-21T07:48:06.903Z,59.66
2023-04-21T07:49:11.274Z,59.90
2023-04-21T07:50:20.205Z,59.85
2023-04-21T07:51:26.139Z,59.82
2023-04-21T07:52:31.463Z,60.28
2023-04-21T07:53:34.806Z,60.02
2023-04-21T07:54:41.215Z,60.47
2023-04-21T07:56:00.139Z,60.42
2023-04-21T07:57:06.071Z,60.86
2023-04-21T07:58:20.345Z,60.13
2023-04-21T07:59:35.828Z,60.14
2023-04-21T08:00:42.439Z,59.63
2023-04-21T08:01:45.696Z,60.14
2023-04-21T08:02:50.987Z,60.12
2023-04-21T08:03:57.422Z,59.63
2023-04-21T08:04:59.896Z,59.70
2023-04-21T08:06:02.650Z,58.94
2023-04-21T08:07:06.099Z,58.61
2023-04-21T08:08:08.611Z,58.15
2023-04-21T08:09:12.998Z,58.51
2023-04-21T08:10:16.130Z,58.96
2023-04-21T08:11:18.308Z,59.53
2023-04-21T08:12:20.334Z,59.84
2023-04-21T08:13:22.856Z,59.85
2023-04-21T08:14:25.042Z,59.31
2023-04-21T08:15:27.319Z,59.24
2023-04-21T08:16:29.619Z,59.30
2023-04-21T08:17:31.766Z,59.60
2023-04-21T08:18:33.999Z,60.05
2023-04-21T08:19:36.163Z,60.12
2023-04-21T08:20:38.425Z,60.26
2023-04-21T08:21:40.648Z,60.16
2023-04-21T08:22:43.019Z,60.10
2023-04-21T08:23:45.301Z,59.64
2023-04-21T08:24:47.946Z,59.39
2023-04-21T08:25:50.199Z,58.83
2023-04-21T08:26:52.766Z,58.57
2023-04-21T08:27:55.057Z,58.77
2023-04-21T08:28:57.347Z,58.94
2023-04-21T08:29:59.578Z,59.08
2023-04-21T08:31:01.776Z,59.27
2023-04-21T08:32:04.468Z,59.38
2023-04-21T08:33:07.402Z,59.33
2023-04-21T08:34:09.773Z,59.21
2023-04-21T08:35:12.000Z,59.53
2023-04-21T08:37:18.672Z,60.03
2023-04-21T08:38:20.859Z,60.60
2023-04-21T08:39:23.001Z,61.11
2023-04-21T08:41:41.570Z,61.16
2023-04-21T08:42:44.570Z,61.70
2023-04-21T08:43:46.683Z,62.13
2023-04-21T08:44:48.921Z,61.53
2023-04-21T08:45:52.687Z,61.32
2023-04-21T08:46:58.619Z,61.41
2023-04-21T08:48:02.073Z,60.35
2023-04-21T08:49:04.816Z,60.18
2023-04-21T08:50:10.934Z,59.58
2023-04-21T08:51:16.706Z,60.44
2023-04-21T08:52:18.902Z,60.51
2023-04-21T08:53:21.851Z,60.66
2023-04-21T08:54:24.127Z,61.17
2023-04-21T08:55:28.878Z,61.62
2023-04-21T08:56:31.388Z,61.07
2023-04-21T08:57:34.237Z,60.70
2023-04-21T08:58:37.462Z,60.85
2023-04-21T08:59:40.221Z,60.97
2023-04-21T09:00:43.578Z,61.72
2023-04-21T09:02:16.529Z,61.96
2023-04-21T09:03:26.348Z,61.71
2023-04-21T09:04:30.089Z,61.06
2023-04-21T09:05:36.422Z,61.34
2023-04-21T09:06:40.602Z,61.67
2023-04-21T09:07:42.855Z,62.73
2023-04-21T09:08:53.842Z,62.34
2023-04-21T09:09:57.672Z,62.14
2023-04-21T09:11:01.177Z,61.86
2023-04-21T09:12:04.007Z,61.89
2023-04-21T09:13:07.333Z,62.14
2023-04-21T09:14:11.275Z,62.41
2023-04-21T09:15:13.883Z,62.28
2023-04-21T09:16:18.862Z,62.32
2023-04-21T09:17:29.779Z,62.48
2023-04-21T09:18:32.039Z,62.33
2023-04-21T09:19:34.297Z,62.89
2023-04-21T09:20:36.807Z,62.21
2023-04-21T09:21:42.615Z,62.41
2023-04-21T09:22:45.128Z,62.40
2023-04-21T09:24:58.781Z,62.83
2023-04-21T09:26:03.920Z,62.33
2023-04-21T09:27:06.560Z,62.22
2023-04-21T09:28:09.912Z,62.29
2023-04-21T09:29:12.606Z,61.96
2023-04-21T09:31:32.799Z,62.76
2023-04-21T09:32:39.887Z,61.99
2023-04-21T09:33:57.584Z,62.40
2023-04-21T09:34:51.116Z,62.96
2023-04-21T09:35:53.754Z,62.87
2023-04-21T09:38:13.571Z,62.76
2023-04-21T09:40:20.160Z,62.75
2023-04-21T09:41:22.683Z,62.67
2023-04-21T09:42:32.653Z,62.81
2023-04-21T09:43:35.732Z,62.72
2023-04-21T09:44:50.537Z,62.44
2023-04-21T09:45:42.538Z,62.30
2023-04-21T09:46:48.237Z,62.37
2023-04-21T09:47:52.374Z,61.76
2023-04-21T09:48:55.527Z,61.51
2023-04-21T09:49:57.639Z,61.44
2023-04-21T09:51:27.153Z,62.12
2023-04-21T09:52:18.661Z,62.59
2023-04-21T09:53:15.887Z,62.94
2023-04-21T09:55:28.767Z,62.67
2023-04-21T09:56:33.380Z,63.04
2023-04-21T09:58:50.127Z,62.34
2023-04-21T10:00:01.074Z,62.74
2023-04-21T10:01:04.540Z,62.69
2023-04-21T10:02:07.888Z,62.63
2023-04-21T10:03:12.441Z,62.54
2023-04-21T10:04:15.914Z,63.04
2023-04-21T10:05:18.920Z,63.15
2023-04-21T10:06:22.395Z,62.86
2023-04-21T10:07:24.963Z,62.84
2023-04-21T10:08:27.226Z,62.81
2023-04-21T10:11:12.334Z,63.46
2023-04-21T10:12:15.148Z,63.75
2023-04-21T10:13:17.432Z,63.17
2023-04-21T10:14:20.049Z,63.38
2023-04-21T10:15:34.439Z,63.23
2023-04-21T10:16:37.437Z,63.34
2023-04-21T10:17:39.812Z,62.61
2023-04-21T10:18:45.108Z,62.86
2023-04-21T10:19:50.397Z,62.91
2023-04-21T10:20:58.165Z,62.96
2023-04-21T10:22:00.890Z,63.17
2023-04-21T10:23:03.223Z,63.04
2023-04-21T10:24:06.547Z,62.96
2023-04-21T10:25:09.074Z,62.84
2023-04-21T10:26:26.602Z,63.09
2023-04-21T10:27:41.062Z,62.16
2023-04-21T10:29:01.862Z,62.65
2023-04-21T10:30:20.482Z,62.56
2023-04-21T10:31:27.343Z,62.01
2023-04-21T10:34:08.340Z,62.34
2023-04-21T10:35:17.684Z,63.36
2023-04-21T10:36:24.046Z,63.04
2023-04-21T10:37:28.024Z,61.93
2023-04-21T10:38:37.221Z,60.58
2023-04-21T10:39:54.735Z,60.24
2023-04-21T10:41:17.022Z,61.24
2023-04-21T10:42:25.214Z,60.91
2023-04-21T10:43:45.291Z,60.28
2023-04-21T10:45:00.666Z,59.99
2023-04-21T10:47:27.708Z,60.59
2023-04-21T10:48:34.725Z,59.20
2023-04-21T10:49:40.499Z,59.12
2023-04-21T10:50:42.881Z,59.58
2023-04-21T10:52:02.744Z,60.80
2023-04-21T10:53:10.620Z,61.59
2023-04-21T10:54:13.941Z,60.65
2023-04-21T10:55:16.571Z,60.07
2023-04-21T10:56:21.594Z,60.29
2023-04-21T10:57:24.372Z,59.96
2023-04-21T10:58:26.951Z,59.57
2023-04-21T10:59:29.110Z,59.88
2023-04-21T11:00:32.093Z,59.22
2023-04-21T11:01:34.311Z,59.12
2023-04-21T11:02:39.773Z,59.15
2023-04-21T11:03:41.385Z,59.43
2023-04-21T11:04:45.237Z,59.29
2023-04-21T11:05:48.166Z,59.43
2023-04-21T11:07:17.367Z,59.84
2023-04-21T11:08:19.459Z,59.74
2023-04-21T11:09:21.962Z,59.68
2023-04-21T11:10:24.780Z,59.69
2023-04-21T11:11:27.034Z,60.29
2023-04-21T11:12:31.723Z,59.49
2023-04-21T11:13:33.947Z,59.33
2023-04-21T11:14:38.581Z,59.00
2023-04-21T11:15:40.680Z,60.18
2023-04-21T11:16:42.964Z,59.85
2023-04-21T11:17:45.355Z,58.90
2023-04-21T11:18:47.831Z,59.25
2023-04-21T11:19:55.607Z,58.64
2023-04-21T11:21:07.081Z,59.04
2023-04-21T11:22:09.793Z,58.52
2023-04-21T11:23:17.332Z,58.25
2023-04-21T11:24:23.073Z,58.04
2023-04-21T11:25:27.210Z,58.11
2023-04-21T11:26:35.218Z,58.01
2023-04-21T11:27:37.941Z,57.95
2023-04-21T11:28:41.572Z,58.55
2023-04-21T11:29:46.561Z,58.31
2023-04-21T11:30:48.896Z,58.72
2023-04-21T11:31:51.033Z,59.28
2023-04-21T11:32:54.812Z,58.57
2023-04-21T11:33:59.892Z,57.94
2023-04-21T11:35:02.694Z,58.63
2023-04-21T11:36:06.165Z,58.14
2023-04-21T11:37:09.442Z,58.08
2023-04-21T11:38:12.116Z,57.76
2023-04-21T11:39:16.160Z,57.65
2023-04-21T11:40:19.064Z,57.35
2023-04-21T11:41:23.021Z,58.54
2023-04-21T11:42:25.331Z,59.13
2023-04-21T11:43:28.608Z,58.05
2023-04-21T11:44:40.117Z,58.43
2023-04-21T11:45:42.782Z,57.80
2023-04-21T11:46:46.331Z,57.80
2023-04-21T11:47:49.474Z,58.66
2023-04-21T11:49:07.180Z,57.60
2023-04-21T11:50:10.381Z,58.46
2023-04-21T11:51:22.010Z,58.30
2023-04-21T11:52:28.780Z,58.16
2023-04-21T11:53:31.370Z,58.71
2023-04-21T11:54:33.749Z,58.66
2023-04-21T11:55:35.984Z,58.35
2023-04-21T11:57:51.894Z,58.74
2023-04-21T11:58:54.669Z,58.22
2023-04-21T12:00:02.465Z,58.43
2023-04-21T12:01:09.608Z,57.50
2023-04-21T12:02:15.597Z,56.99
2023-04-21T12:03:19.631Z,57.97
2023-04-21T12:04:24.459Z,57.86
2023-04-21T12:06:47.367Z,57.39
2023-04-21T12:07:50.548Z,57.42
2023-04-21T12:11:30.993Z,57.98
2023-04-21T12:12:37.223Z,57.92
2023-04-21T12:13:39.830Z,57.83
2023-04-21T12:14:44.392Z,58.41
2023-04-21T12:15:49.129Z,58.43
2023-04-21T12:16:54.627Z,58.53
2023-04-21T12:17:56.914Z,58.16
2023-04-21T12:18:59.056Z,58.18
2023-04-21T12:20:06.739Z,57.91
2023-04-21T12:21:09.507Z,57.52
2023-04-21T12:22:17.018Z,57.58
2023-04-21T12:23:19.244Z,57.34
2023-04-21T12:24:21.423Z,57.97
2023-04-21T12:25:23.630Z,57.80
2023-04-21T12:26:26.341Z,57.77
2023-04-21T12:27:28.597Z,57.82
2023-04-21T12:28:30.868Z,57.52
2023-04-21T12:29:33.433Z,57.63
2023-04-21T12:30:38.648Z,57.16
2023-04-21T12:31:39.817Z,57.30
2023-04-21T12:32:42.034Z,57.31
2023-04-21T12:33:44.359Z,57.38
2023-04-21T12:34:47.112Z,57.94
2023-04-21T12:35:49.295Z,57.51
2023-04-21T12:36:51.977Z,56.33
2023-04-21T12:37:54.477Z,56.62
2023-04-21T12:38:57.030Z,56.77
2023-04-21T12:39:59.184Z,57.26
2023-04-21T12:41:01.480Z,57.16
2023-04-21T12:42:04.028Z,57.23
2023-04-21T12:43:06.082Z,56.66
2023-04-21T12:44:08.231Z,56.95
2023-04-21T12:45:11.285Z,56.18
2023-04-21T12:46:13.944Z,56.47
2023-04-21T12:47:16.165Z,56.85
2023-04-21T12:48:18.651Z,56.92
2023-04-21T12:49:21.047Z,56.47
2023-04-21T12:50:23.407Z,56.57
2023-04-21T12:51:25.476Z,56.18
2023-04-21T12:52:28.318Z,55.27
2023-04-21T12:53:31.549Z,54.77
2023-04-21T12:54:33.822Z,54.65
2023-04-21T12:55:36.483Z,55.27
2023-04-21T12:56:42.541Z,54.73
2023-04-21T12:57:44.822Z,55.51
2023-04-21T12:58:46.978Z,55.43
2023-04-21T12:59:49.584Z,55.27
2023-04-21T13:00:51.898Z,54.41
2023-04-21T13:01:54.582Z,54.27
2023-04-21T13:02:56.868Z,54.44
2023-04-21T13:03:59.586Z,54.27
2023-04-21T13:05:01.968Z,53.89
2023-04-21T13:06:04.395Z,54.33
2023-04-21T13:07:07.071Z,54.10
2023-04-21T13:08:09.616Z,54.54
2023-04-21T13:09:12.306Z,54.58
2023-04-21T13:10:14.860Z,55.02
2023-04-21T13:11:17.016Z,55.05
2023-04-21T13:12:19.127Z,54.31
2023-04-21T13:13:21.657Z,52.73
2023-04-21T13:14:25.176Z,52.64
2023-04-21T13:15:27.375Z,53.10
2023-04-21T13:16:30.487Z,52.70
2023-04-21T13:17:32.813Z,52.97
2023-04-21T13:18:35.110Z,52.36
2023-04-21T13:19:37.338Z,52.90
2023-04-21T13:20:39.801Z,53.29
2023-04-21T13:21:43.029Z,52.22
2023-04-21T13:22:45.269Z,52.02
2023-04-21T13:23:50.796Z,52.89
2023-04-21T13:24:54.009Z,52.68
2023-04-21T13:25:56.119Z,52.22
2023-04-21T13:26:59.545Z,52.40
2023-04-21T13:28:01.767Z,52.84
2023-04-21T13:29:04.020Z,52.62
2023-04-21T13:30:09.898Z,52.99
2023-04-21T13:31:12.134Z,53.34
2023-04-21T13:32:14.896Z,53.86
2023-04-21T13:33:17.219Z,53.30
2023-04-21T13:34:19.336Z,52.40
2023-04-21T13:35:22.719Z,52.81
2023-04-21T13:36:25.550Z,52.65
2023-04-21T13:37:27.745Z,53.18
2023-04-21T13:38:30.836Z,53.30
2023-04-21T13:39:33.210Z,52.94
2023-04-21T13:40:36.121Z,52.96
2023-04-21T13:41:38.473Z,53.25
2023-04-21T13:42:40.707Z,53.78
2023-04-21T13:43:44.131Z,52.08
2023-04-21T13:44:46.760Z,51.74
2023-04-21T13:45:49.544Z,51.57
2023-04-21T13:46:52.590Z,51.00
2023-04-21T13:47:55.156Z,51.52
2023-04-21T13:48:57.138Z,51.57
2023-04-21T13:50:00.398Z,51.36
2023-04-21T13:51:03.168Z,52.16
2023-04-21T13:52:06.244Z,52.10
2023-04-21T13:53:08.522Z,51.87
2023-04-21T13:54:10.581Z,52.34
2023-04-21T13:55:13.870Z,51.75
2023-04-21T13:56:16.592Z,51.97
2023-04-21T13:57:19.749Z,52.29
2023-04-21T13:58:22.809Z,52.49
2023-04-21T13:59:25.159Z,52.30
2023-04-21T14:00:27.902Z,51.73
2023-04-21T14:01:29.882Z,51.46
2023-04-21T14:02:32.524Z,51.02
2023-04-21T14:03:35.454Z,51.31
2023-04-21T14:04:38.181Z,51.54
2023-04-21T14:05:40.598Z,51.44
2023-04-21T14:06:42.951Z,51.76
2023-04-21T14:07:45.181Z,51.53
2023-04-21T14:08:47.325Z,51.75
2023-04-21T14:09:50.261Z,52.31
2023-04-21T14:10:52.571Z,51.59
2023-04-21T14:11:55.241Z,50.87